createdAt,value
2023-02-05T00:00:31.121Z,0.80
2023-02-05T00:02:58.613Z,0.80
2023-02-05T00:05:25.890Z,0.80
2023-02-05T00:07:53.061Z,0.70
2023-02-05T00:10:20.284Z,0.80
2023-02-05T00:12:47.525Z,0.70
2023-02-05T00:15:14.792Z,0.70
2023-02-05T00:17:42.033Z,0.70
2023-02-05T00:20:09.913Z,0.60
2023-02-05T00:22:37.179Z,0.50
2023-02-05T00:25:04.700Z,0.60
2023-02-05T00:27:33.678Z,0.50
2023-02-05T00:30:00.825Z,0.60
2023-02-05T00:32:28.018Z,0.60
2023-02-05T00:34:56.968Z,0.50
2023-02-05T00:37:24.248Z,0.60
2023-02-05T00:39:51.408Z,0.60
2023-02-05T00:42:18.657Z,0.60
2023-02-05T00:44:45.938Z,0.60
2023-02-05T00:47:13.365Z,0.50
2023-02-05T00:49:40.570Z,0.50
2023-02-05T00:52:07.809Z,0.50
2023-02-05T00:54:35.099Z,0.50
2023-02-05T00:57:02.356Z,0.60
2023-02-05T00:59:29.772Z,0.60
2023-02-05T01:01:57.909Z,0.50
2023-02-05T01:04:25.186Z,0.60
2023-02-05T01:06:52.388Z,0.50
2023-02-05T01:09:22.752Z,0.50
2023-02-05T01:11:49.959Z,0.50
2023-02-05T01:14:17.376Z,0.50
2023-02-05T01:16:44.563Z,0.40
2023-02-05T01:19:12.053Z,0.40
2023-02-05T01:21:39.272Z,0.40
2023-02-05T01:24:06.670Z,0.40
2023-02-05T01:26:33.807Z,0.50
2023-02-05T01:29:01.344Z,0.50
2023-02-05T01:31:29.758Z,0.40
2023-02-05T01:33:57.056Z,0.40
2023-02-05T01:36:24.385Z,0.30
2023-02-05T01:38:52.864Z,0.40
2023-02-05T01:41:20.803Z,0.30
2023-02-05T01:44:29.123Z,0.40
2023-02-05T01:46:57.373Z,0.40
2023-02-05T01:49:55.299Z,0.40
2023-02-05T01:52:22.543Z,0.30
2023-02-05T01:54:53.311Z,0.30
2023-02-05T01:57:23.976Z,0.30
2023-02-05T01:59:51.413Z,0.30
2023-02-05T02:02:18.897Z,0.20
2023-02-05T02:04:50.236Z,0.20
2023-02-05T02:07:20.707Z,0.10
2023-02-05T02:09:48.975Z,0.10
2023-02-05T02:12:21.525Z,0.10
2023-02-05T02:14:52.549Z,0.10
2023-02-05T02:17:39.274Z,0.10
2023-02-05T02:20:14.240Z,0.00
2023-02-05T02:22:56.317Z,0.00
2023-02-05T02:25:29.635Z,0.00
2023-02-05T02:28:20.951Z,0.00
2023-02-05T02:31:19.437Z,-0.10
2023-02-05T02:33:56.417Z,-0.10
2023-02-05T02:36:42.181Z,0.00
2023-02-05T02:39:31.331Z,0.00
2023-02-05T02:42:11.842Z,-0.10
2023-02-05T02:44:51.425Z,-0.10
2023-02-05T02:47:25.562Z,-0.10
2023-02-05T02:50:01.319Z,-0.20
2023-02-05T02:52:34.033Z,-0.10
2023-02-05T02:55:07.952Z,-0.20
2023-02-05T02:57:39.387Z,-0.20
2023-02-05T03:00:12.180Z,-0.20
2023-02-05T03:02:41.321Z,-0.20
2023-02-05T03:05:14.710Z,-0.20
2023-02-05T03:07:46.862Z,-0.10
2023-02-05T03:10:20.649Z,-0.20
2023-02-05T03:12:48.600Z,-0.20
2023-02-05T03:15:16.013Z,-0.30
2023-02-05T03:17:46.721Z,-0.20
2023-02-05T03:20:54.456Z,-0.30
2023-02-05T03:23:21.752Z,-0.30
2023-02-05T03:25:49.268Z,-0.30
2023-02-05T03:28:21.325Z,-0.40
2023-02-05T03:30:54.961Z,-0.40
2023-02-05T03:33:56.045Z,-0.40
2023-02-05T03:36:47.514Z,-0.40
2023-02-05T03:39:53.703Z,-0.40
2023-02-05T03:42:34.014Z,-0.40
2023-02-05T03:45:09.602Z,-0.40
2023-02-05T03:48:08.498Z,-0.40
2023-02-05T03:50:38.405Z,-0.40
2023-02-05T03:53:29.264Z,-0.40
2023-02-05T03:56:13.742Z,-0.40
2023-02-05T03:58:46.395Z,-0.40
2023-02-05T04:01:15.834Z,-0.30
2023-02-05T04:03:44.790Z,-0.30
2023-02-05T04:06:12.985Z,-0.20
2023-02-05T04:08:40.761Z,-0.30
2023-02-05T04:11:09.560Z,-0.30
2023-02-05T04:13:37.621Z,-0.30
2023-02-05T04:16:07.093Z,-0.40
2023-02-05T04:18:34.435Z,-0.30
2023-02-05T04:21:01.828Z,-0.30
2023-02-05T04:23:32.217Z,-0.40
2023-02-05T04:26:00.479Z,-0.40
2023-02-05T04:28:34.812Z,-0.40
2023-02-05T04:31:11.633Z,-0.50
2023-02-05T04:33:41.053Z,-0.50
2023-02-05T04:36:11.100Z,-0.50
2023-02-05T04:38:38.822Z,-0.50
2023-02-05T04:41:08.126Z,-0.50
2023-02-05T04:43:35.404Z,-0.40
2023-02-05T04:46:07.694Z,-0.50
2023-02-05T04:48:35.782Z,-0.50
2023-02-05T04:51:11.274Z,-0.50
2023-02-05T04:53:39.033Z,-0.50
2023-02-05T04:56:15.299Z,-0.50
2023-02-05T04:58:43.160Z,-0.50
2023-02-05T05:01:16.204Z,-0.50
2023-02-05T05:03:44.019Z,-0.50
2023-02-05T05:06:11.618Z,-0.50
2023-02-05T05:08:39.093Z,-0.50
2023-02-05T05:11:11.659Z,-0.50
2023-02-05T05:13:39.586Z,-0.50
2023-02-05T05:16:08.242Z,-0.60
2023-02-05T05:18:35.695Z,-0.50
2023-02-05T05:21:04.381Z,-0.60
2023-02-05T05:23:32.546Z,-0.60
2023-02-05T05:26:00.195Z,-0.70
2023-02-05T05:28:27.725Z,-0.70
2023-02-05T05:30:55.008Z,-0.70
2023-02-05T05:33:22.662Z,-0.70
2023-02-05T05:35:50.001Z,-0.70
2023-02-05T05:38:17.221Z,-0.70
2023-02-05T05:41:02.771Z,-0.70
2023-02-05T05:43:48.365Z,-0.70
2023-02-05T05:46:23.779Z,-0.80
2023-02-05T05:48:52.815Z,-0.80
2023-02-05T05:51:21.052Z,-0.80
2023-02-05T05:53:48.970Z,-0.90
2023-02-05T05:56:16.687Z,-0.90
2023-02-05T05:58:45.004Z,-0.80
2023-02-05T06:01:13.489Z,-0.90
2023-02-05T06:03:40.723Z,-0.90
2023-02-05T06:06:09.213Z,-0.80
2023-02-05T06:08:36.412Z,-0.90
2023-02-05T06:11:03.925Z,-0.90
2023-02-05T06:13:31.225Z,-0.90
2023-02-05T06:15:58.498Z,-0.80
2023-02-05T06:18:25.808Z,-0.90
2023-02-05T06:20:53.024Z,-0.90
2023-02-05T06:23:20.261Z,-0.80
2023-02-05T06:25:47.536Z,-0.90
2023-02-05T06:28:14.819Z,-0.90
2023-02-05T06:30:42.148Z,-0.90
2023-02-05T06:33:11.585Z,-0.90
2023-02-05T06:35:39.622Z,-0.90
2023-02-05T06:38:06.965Z,-0.90
2023-02-05T06:40:34.222Z,-0.80
2023-02-05T06:43:01.552Z,-0.80
2023-02-05T06:45:28.917Z,-0.90
2023-02-05T06:47:57.706Z,-0.90
2023-02-05T06:50:25.421Z,-0.90
2023-02-05T06:52:52.788Z,-0.80
2023-02-05T06:55:20.217Z,-0.70
2023-02-05T06:57:47.394Z,-0.70
2023-02-05T07:00:15.759Z,-0.80
2023-02-05T07:02:43.304Z,-0.80
2023-02-05T07:05:10.598Z,-0.80
2023-02-05T07:07:37.985Z,-0.80
2023-02-05T07:12:47.401Z,-0.80
2023-02-05T07:15:14.654Z,-0.80
2023-02-05T07:17:41.870Z,-0.80
2023-02-05T07:20:09.522Z,-0.80
2023-02-05T07:22:36.812Z,-0.80
2023-02-05T07:25:04.844Z,-0.80
2023-02-05T07:27:32.164Z,-0.80
2023-02-05T07:30:00.854Z,-0.70
2023-02-05T07:32:29.741Z,-0.70
2023-02-05T07:34:57.065Z,-0.70
2023-02-05T07:37:24.216Z,-0.70
2023-02-05T07:39:51.349Z,-0.60
2023-02-05T07:42:18.607Z,-0.50
2023-02-05T07:44:51.472Z,-0.50
2023-02-05T07:47:18.742Z,-0.50
2023-02-05T07:49:45.964Z,-0.40
2023-02-05T07:52:13.158Z,-0.30
2023-02-05T07:54:40.577Z,-0.10
2023-02-05T07:57:07.844Z,-0.20
2023-02-05T07:59:35.060Z,-0.20
2023-02-05T08:02:02.424Z,-0.20
2023-02-05T08:04:29.777Z,-0.20
2023-02-05T08:06:57.004Z,-0.20
2023-02-05T08:09:24.258Z,-0.20
2023-02-05T08:11:51.492Z,-0.30
2023-02-05T08:14:18.735Z,-0.30
2023-02-05T08:16:45.989Z,-0.30
2023-02-05T08:19:16.418Z,-0.30
2023-02-05T08:21:44.129Z,-0.20
2023-02-05T08:24:11.421Z,-0.30
2023-02-05T08:26:42.151Z,-0.20
2023-02-05T08:29:10.702Z,-0.20
2023-02-05T08:31:38.921Z,-0.30
2023-02-05T08:34:06.177Z,-0.30
2023-02-05T08:36:33.397Z,-0.30
2023-02-05T08:39:00.816Z,-0.30
2023-02-05T08:41:28.423Z,-0.30
2023-02-05T08:43:55.571Z,-0.30
2023-02-05T08:46:33.878Z,-0.30
2023-02-05T08:49:11.008Z,-0.30
2023-02-05T08:51:38.429Z,-0.20
2023-02-05T08:54:09.301Z,-0.20
2023-02-05T08:56:36.606Z,-0.10
2023-02-05T08:59:04.004Z,-0.20
2023-02-05T09:01:31.399Z,-0.10
2023-02-05T09:03:58.606Z,0.00
2023-02-05T09:06:25.784Z,0.00
2023-02-05T09:08:52.987Z,0.00
2023-02-05T09:11:23.961Z,0.00
2023-02-05T09:13:51.303Z,0.00
2023-02-05T09:16:18.611Z,0.00
2023-02-05T09:18:46.088Z,0.10
2023-02-05T09:21:13.524Z,0.10
2023-02-05T09:23:40.750Z,0.10
2023-02-05T09:26:09.243Z,0.00
2023-02-05T09:28:37.531Z,0.00
2023-02-05T09:31:09.867Z,0.00
2023-02-05T09:33:37.297Z,0.00
2023-02-05T09:36:21.429Z,0.00
2023-02-05T09:38:50.010Z,0.00
2023-02-05T09:41:26.781Z,0.00
2023-02-05T09:44:22.340Z,0.10
2023-02-05T09:47:06.034Z,0.20
2023-02-05T09:49:54.781Z,0.20
2023-02-05T09:52:36.220Z,0.40
2023-02-05T09:55:15.012Z,0.40
2023-02-05T09:57:43.334Z,0.50
2023-02-05T10:00:51.672Z,0.60
2023-02-05T10:03:36.953Z,0.60
2023-02-05T10:06:14.870Z,0.70
2023-02-05T10:09:09.264Z,0.70
2023-02-05T10:12:05.001Z,0.70
2023-02-05T10:14:59.921Z,0.70
2023-02-05T10:17:37.012Z,0.80
2023-02-05T10:20:24.689Z,0.80
2023-02-05T10:23:10.229Z,0.90
2023-02-05T10:25:54.204Z,0.90
2023-02-05T10:29:06.722Z,0.90
2023-02-05T10:31:54.401Z,0.90
2023-02-05T10:34:39.677Z,1.00
2023-02-05T10:37:15.027Z,0.90
2023-02-05T10:39:42.471Z,0.70
2023-02-05T10:42:09.603Z,0.70
2023-02-05T10:44:42.890Z,0.70
2023-02-05T10:47:19.849Z,0.70
2023-02-05T10:49:51.117Z,0.70
2023-02-05T10:52:21.201Z,0.70
2023-02-05T10:54:48.621Z,0.80
2023-02-05T10:57:19.898Z,0.90
2023-02-05T10:59:55.797Z,1.00
2023-02-05T11:02:31.548Z,1.00
2023-02-05T11:05:02.782Z,1.00
2023-02-05T11:07:51.064Z,0.90
2023-02-05T11:10:27.471Z,1.00
2023-02-05T11:12:59.498Z,1.00
2023-02-05T11:15:29.842Z,1.00
2023-02-05T11:18:01.564Z,1.00
2023-02-05T11:20:38.281Z,0.90
2023-02-05T11:23:19.449Z,1.00
2023-02-05T11:25:58.284Z,1.00
2023-02-05T11:28:32.312Z,1.10
2023-02-05T11:31:28.850Z,1.00
2023-02-05T11:34:08.530Z,0.90
2023-02-05T11:36:51.489Z,0.90
2023-02-05T11:39:36.710Z,0.90
2023-02-05T11:42:30.436Z,0.80
2023-02-05T11:45:02.384Z,0.70
2023-02-05T11:47:34.037Z,0.70
2023-02-05T11:50:02.316Z,0.70
2023-02-05T11:52:34.827Z,0.70
2023-02-05T11:55:02.768Z,0.70
2023-02-05T11:57:38.962Z,0.70
2023-02-05T12:00:09.275Z,0.80
2023-02-05T12:02:38.780Z,0.80
2023-02-05T12:05:30.832Z,0.80
2023-02-05T12:08:16.325Z,0.90
2023-02-05T12:11:22.368Z,0.80
2023-02-05T12:14:21.981Z,0.80
2023-02-05T12:17:31.323Z,1.00
2023-02-05T12:20:21.928Z,1.10
2023-02-05T12:22:55.070Z,1.00
2023-02-05T12:25:45.094Z,1.10
2023-02-05T12:28:49.752Z,1.20
2023-02-05T12:31:35.561Z,1.50
2023-02-05T12:34:21.675Z,1.50
2023-02-05T12:37:06.438Z,1.50
2023-02-05T12:39:45.115Z,1.30
2023-02-05T12:42:47.504Z,1.20
2023-02-05T12:45:32.345Z,1.30
2023-02-05T12:48:11.640Z,1.30
2023-02-05T12:50:38.785Z,1.30
2023-02-05T12:53:27.329Z,1.30
2023-02-05T12:56:19.595Z,1.30
2023-02-05T12:59:12.064Z,1.30
2023-02-05T13:01:53.994Z,1.20
2023-02-05T13:04:36.430Z,1.10
2023-02-05T13:07:12.987Z,1.10
2023-02-05T13:09:50.989Z,1.30
2023-02-05T13:12:23.403Z,1.70
2023-02-05T13:15:21.590Z,1.90
2023-02-05T13:18:06.939Z,2.10
2023-02-05T13:21:19.045Z,2.60
2023-02-05T13:24:05.923Z,2.70
2023-02-05T13:26:58.992Z,2.20
2023-02-05T13:29:32.136Z,1.90
2023-02-05T13:32:15.387Z,1.60
2023-02-05T13:34:43.654Z,2.70
2023-02-05T13:37:26.130Z,4.50
2023-02-05T13:40:21.332Z,4.00
2023-02-05T13:43:13.470Z,3.20
2023-02-05T13:45:58.917Z,2.50
2023-02-05T13:48:36.610Z,2.30
2023-02-05T13:51:40.153Z,2.10
2023-02-05T13:54:28.674Z,1.90
2023-02-05T13:57:07.833Z,1.80
2023-02-05T13:59:51.643Z,1.90
2023-02-05T14:02:32.959Z,1.90
2023-02-05T14:05:02.028Z,1.80
2023-02-05T14:07:49.681Z,1.60
2023-02-05T14:10:32.339Z,1.60
2023-02-05T14:13:11.329Z,1.50
2023-02-05T14:15:41.634Z,1.40
2023-02-05T14:18:33.757Z,1.40
2023-02-05T14:21:01.101Z,1.30
2023-02-05T14:23:49.153Z,1.40
2023-02-05T14:26:36.964Z,1.40
2023-02-05T14:29:41.446Z,1.40
2023-02-05T14:32:30.538Z,1.40
2023-02-05T14:35:28.169Z,1.30
2023-02-05T14:38:02.625Z,1.30
2023-02-05T14:40:36.742Z,1.30
2023-02-05T14:43:12.811Z,1.30
2023-02-05T14:45:52.096Z,1.30
2023-02-05T14:48:27.448Z,1.20
2023-02-05T14:51:21.711Z,1.20
2023-02-05T14:54:09.638Z,1.10
2023-02-05T14:56:46.920Z,1.10
2023-02-05T14:59:37.033Z,1.10
2023-02-05T15:02:04.934Z,1.10
2023-02-05T15:04:50.480Z,1.00
2023-02-05T15:07:24.021Z,1.10
2023-02-05T15:10:00.041Z,1.10
2023-02-05T15:12:33.410Z,1.10
2023-02-05T15:15:28.143Z,1.00
2023-02-05T15:18:10.823Z,1.00
2023-02-05T15:20:40.595Z,0.80
2023-02-05T15:23:18.437Z,0.60
2023-02-05T15:25:56.806Z,0.60
2023-02-05T15:28:40.677Z,0.60
2023-02-05T15:31:08.380Z,0.60
2023-02-05T15:33:54.048Z,0.60
2023-02-05T15:36:36.746Z,0.60
2023-02-05T15:39:13.777Z,0.50
2023-02-05T15:41:44.319Z,0.60
2023-02-05T15:44:26.476Z,0.60
2023-02-05T15:46:54.688Z,0.60
2023-02-05T15:49:30.155Z,0.60
2023-02-05T15:51:58.550Z,0.60
2023-02-05T15:54:25.987Z,0.50
2023-02-05T15:56:54.184Z,0.50
2023-02-05T15:59:29.377Z,0.50
2023-02-05T16:02:18.842Z,0.40
2023-02-05T16:05:07.534Z,0.40
2023-02-05T16:07:42.306Z,0.50
2023-02-05T16:10:30.817Z,0.30
2023-02-05T16:13:01.693Z,0.20
2023-02-05T16:15:52.443Z,0.20
2023-02-05T16:18:40.867Z,0.10
2023-02-05T16:21:17.964Z,0.10
2023-02-05T16:23:57.131Z,0.20
2023-02-05T16:26:36.810Z,0.20
2023-02-05T16:29:24.489Z,0.10
2023-02-05T16:32:00.240Z,0.10
2023-02-05T16:34:28.929Z,0.20
2023-02-05T16:37:00.449Z,0.10
2023-02-05T16:39:31.480Z,0.10
2023-02-05T16:42:07.563Z,0.10
2023-02-05T16:44:40.089Z,0.00
2023-02-05T16:47:12.380Z,0.00
2023-02-05T16:49:40.687Z,-0.10
2023-02-05T16:52:43.378Z,-0.10
2023-02-05T16:55:18.725Z,-0.10
2023-02-05T16:57:47.600Z,-0.20
2023-02-05T17:00:19.800Z,-0.10
2023-02-05T17:02:47.168Z,-0.10
2023-02-05T17:05:27.998Z,-0.10
2023-02-05T17:07:59.027Z,-0.10
2023-02-05T17:10:28.887Z,-0.20
2023-02-05T17:13:03.326Z,-0.20
2023-02-05T17:15:36.750Z,-0.20
2023-02-05T17:18:20.761Z,-0.20
2023-02-05T17:20:51.114Z,-0.20
2023-02-05T17:23:18.704Z,-0.20
2023-02-05T17:25:55.527Z,-0.20
2023-02-05T17:28:26.094Z,-0.10
2023-02-05T17:30:57.760Z,-0.20
2023-02-05T17:33:27.618Z,-0.20
2023-02-05T17:35:55.264Z,-0.10
2023-02-05T17:38:23.653Z,-0.10
2023-02-05T17:41:11.041Z,-0.20
2023-02-05T17:43:39.278Z,-0.10
2023-02-05T17:46:14.089Z,-0.10
2023-02-05T17:48:41.760Z,-0.20
2023-02-05T17:51:20.464Z,-0.20
2023-02-05T17:53:50.220Z,-0.20
2023-02-05T17:56:21.434Z,-0.20
2023-02-05T17:58:50.572Z,-0.20
2023-02-05T18:01:19.122Z,-0.20
2023-02-05T18:03:46.683Z,-0.30
2023-02-05T18:06:16.648Z,-0.30
2023-02-05T18:08:44.201Z,-0.20
2023-02-05T18:11:11.507Z,-0.30
2023-02-05T18:13:39.098Z,-0.30
2023-02-05T18:16:06.413Z,-0.30
2023-02-05T18:18:36.358Z,-0.30
2023-02-05T18:21:03.745Z,-0.40
2023-02-05T18:23:31.667Z,-0.40
2023-02-05T18:25:59.009Z,-0.30
2023-02-05T18:28:26.551Z,-0.40
2023-02-05T18:31:02.053Z,-0.40
2023-02-05T18:33:29.719Z,-0.40
2023-02-05T18:36:07.310Z,-0.40
2023-02-05T18:38:36.191Z,-0.50
2023-02-05T18:41:15.799Z,-0.50
2023-02-05T18:43:44.240Z,-0.50
2023-02-05T18:46:14.477Z,-0.40
2023-02-05T18:48:42.297Z,-0.40
2023-02-05T18:51:14.915Z,-0.40
2023-02-05T18:53:47.151Z,-0.50
2023-02-05T18:56:25.951Z,-0.50
2023-02-05T18:58:59.159Z,-0.50
2023-02-05T19:01:29.305Z,-0.50
2023-02-05T19:04:00.400Z,-0.50
2023-02-05T19:06:28.086Z,-0.50
2023-02-05T19:08:57.768Z,-0.50
2023-02-05T19:11:26.583Z,-0.50
2023-02-05T19:14:05.817Z,-0.50
2023-02-05T19:16:34.146Z,-0.40
2023-02-05T19:19:02.565Z,-0.50
2023-02-05T19:21:31.521Z,-0.50
2023-02-05T19:24:05.430Z,-0.40
2023-02-05T19:26:34.344Z,-0.50
2023-02-05T19:29:04.856Z,-0.40
2023-02-05T19:31:37.047Z,-0.40
2023-02-05T19:34:05.072Z,-0.40
2023-02-05T19:36:33.010Z,-0.30
2023-02-05T19:39:01.742Z,-0.40
2023-02-05T19:41:29.309Z,-0.40
2023-02-05T19:43:59.438Z,-0.40
2023-02-05T19:46:31.376Z,-0.40
2023-02-05T19:49:04.988Z,-0.40
2023-02-05T19:51:32.969Z,-0.40
2023-02-05T19:54:03.216Z,-0.40
2023-02-05T19:56:32.460Z,-0.40
2023-02-05T19:59:00.120Z,-0.50
2023-02-05T20:01:32.597Z,-0.40
2023-02-05T20:04:17.756Z,-0.40
2023-02-05T20:06:46.680Z,-0.30
2023-02-05T20:09:15.599Z,-0.40
2023-02-05T20:11:45.666Z,-0.40
2023-02-05T20:14:13.389Z,-0.30
2023-02-05T20:16:40.942Z,-0.40
2023-02-05T20:19:10.668Z,-0.40
2023-02-05T20:21:38.619Z,-0.40
2023-02-05T20:24:07.495Z,-0.40
2023-02-05T20:26:35.943Z,-0.50
2023-02-05T20:29:22.480Z,-0.50
2023-02-05T20:31:51.486Z,-0.40
2023-02-05T20:34:22.368Z,-0.40
2023-02-05T20:36:52.584Z,-0.50
2023-02-05T20:39:20.801Z,-0.50
2023-02-05T20:41:50.243Z,-0.60
2023-02-05T20:44:18.890Z,-0.60
2023-02-05T20:46:46.742Z,-0.60
2023-02-05T20:49:14.188Z,-0.70
2023-02-05T20:51:42.492Z,-0.70
2023-02-05T20:54:10.275Z,-0.70
2023-02-05T20:56:38.158Z,-0.80
2023-02-05T20:59:07.842Z,-0.80
2023-02-05T21:01:36.986Z,-0.80
2023-02-05T21:04:05.882Z,-0.90
2023-02-05T21:06:35.670Z,-1.00
2023-02-05T21:09:04.394Z,-1.00
2023-02-05T21:11:32.281Z,-1.00
2023-02-05T21:13:59.620Z,-1.00
2023-02-05T21:16:27.806Z,-1.10
2023-02-05T21:18:55.908Z,-1.10
2023-02-05T21:21:26.847Z,-1.00
2023-02-05T21:23:55.510Z,-1.10
2023-02-05T21:26:30.123Z,-1.10
2023-02-05T21:29:00.367Z,-1.00
2023-02-05T21:31:39.538Z,-1.00
2023-02-05T21:34:11.051Z,-1.10
2023-02-05T21:36:38.433Z,-1.20
2023-02-05T21:39:06.096Z,-1.10
2023-02-05T21:41:33.436Z,-1.20
2023-02-05T21:44:01.645Z,-1.20
2023-02-05T21:46:30.306Z,-1.20
2023-02-05T21:48:59.945Z,-1.30
2023-02-05T21:51:31.945Z,-1.30
2023-02-05T21:54:01.549Z,-1.30
2023-02-05T21:56:36.178Z,-1.20
2023-02-05T21:59:04.092Z,-1.30
2023-02-05T22:01:33.418Z,-1.40
2023-02-05T22:04:03.000Z,-1.40
2023-02-05T22:06:32.919Z,-1.30
2023-02-05T22:09:00.933Z,-1.40
2023-02-05T22:11:29.005Z,-1.40
2023-02-05T22:13:56.963Z,-1.40
2023-02-05T22:16:26.682Z,-1.40
2023-02-05T22:18:55.220Z,-1.40
2023-02-05T22:21:28.170Z,-1.50
2023-02-05T22:23:57.452Z,-1.60
2023-02-05T22:26:30.387Z,-1.60
2023-02-05T22:28:59.389Z,-1.60
2023-02-05T22:31:28.198Z,-1.70
2023-02-05T22:33:56.227Z,-1.60
2023-02-05T22:36:27.222Z,-1.70
2023-02-05T22:38:55.095Z,-1.70
2023-02-05T22:41:28.546Z,-1.70
2023-02-05T22:43:57.507Z,-1.80
2023-02-05T22:46:30.009Z,-1.70
2023-02-05T22:48:59.674Z,-1.70
2023-02-05T22:51:31.817Z,-1.60
2023-02-05T22:54:00.152Z,-1.70
2023-02-05T22:56:27.820Z,-1.70
2023-02-05T22:58:55.919Z,-1.70
2023-02-05T23:01:28.741Z,-1.70
2023-02-05T23:03:57.428Z,-1.70
2023-02-05T23:06:30.736Z,-1.70
2023-02-05T23:09:11.009Z,-1.60
2023-02-05T23:11:38.865Z,-1.70
2023-02-05T23:14:07.773Z,-1.70
2023-02-05T23:16:38.340Z,-1.80
2023-02-05T23:19:19.837Z,-1.80
2023-02-05T23:21:48.280Z,-1.80
2023-02-05T23:24:16.910Z,-1.80
2023-02-05T23:26:46.764Z,-1.80
2023-02-05T23:29:15.382Z,-1.80
2023-02-05T23:31:42.841Z,-1.80
2023-02-05T23:34:10.833Z,-1.70
2023-02-05T23:36:38.399Z,-1.90
2023-02-05T23:39:05.958Z,-1.90
2023-02-05T23:41:36.396Z,-1.90
2023-02-05T23:44:18.432Z,-1.90
2023-02-05T23:46:47.179Z,-1.90
2023-02-05T23:49:15.098Z,-1.90
2023-02-05T23:51:43.075Z,-1.90
2023-02-05T23:54:11.648Z,-1.90
2023-02-05T23:56:39.360Z,-1.80
2023-02-05T23:59:07.980Z,-1.70
